createdAt,value
2023-04-19T00:02:02.662Z,10.29
2023-04-19T00:04:38.427Z,10.28
2023-04-19T00:07:11.142Z,10.26
2023-04-19T00:09:43.548Z,10.22
2023-04-19T00:12:15.699Z,10.23
2023-04-19T00:14:47.762Z,10.19
2023-04-19T00:17:21.313Z,10.16
2023-04-19T00:19:53.642Z,10.14
2023-04-19T00:22:26.448Z,10.09
2023-04-19T00:24:58.791Z,10.01
2023-04-19T00:27:31.041Z,9.96
2023-04-19T00:30:03.220Z,9.93
2023-04-19T00:32:35.442Z,9.93
2023-04-19T00:35:07.996Z,9.83
2023-04-19T00:37:40.101Z,9.82
2023-04-19T00:40:12.484Z,9.79
2023-04-19T00:42:44.569Z,9.78
2023-04-19T00:45:16.691Z,9.72
2023-04-19T00:47:48.878Z,9.72
2023-04-19T00:50:21.771Z,9.70
2023-04-19T00:52:55.915Z,9.62
2023-04-19T00:55:28.085Z,9.61
2023-04-19T00:58:00.507Z,9.61
2023-04-19T01:00:32.828Z,9.54
2023-04-19T01:03:05.406Z,9.54
2023-04-19T01:05:37.656Z,9.48
2023-04-19T01:08:09.768Z,9.42
2023-04-19T01:10:41.876Z,9.43
2023-04-19T01:13:14.067Z,9.40
2023-04-19T01:15:46.357Z,9.36
2023-04-19T01:18:19.626Z,9.32
2023-04-19T01:20:52.683Z,9.30
2023-04-19T01:27:26.540Z,9.18
2023-04-19T01:29:58.588Z,9.13
2023-04-19T01:32:30.770Z,9.06
2023-04-19T01:36:02.303Z,8.99
2023-04-19T01:38:35.508Z,9.00
2023-04-19T01:41:08.146Z,8.91
2023-04-19T01:43:40.373Z,8.89
2023-04-19T01:46:12.487Z,8.87
2023-04-19T01:48:44.644Z,8.83
2023-04-19T01:51:17.596Z,8.84
2023-04-19T01:53:54.064Z,8.81
2023-04-19T01:56:26.422Z,8.72
2023-04-19T01:58:58.578Z,8.74
2023-04-19T02:01:30.665Z,8.71
2023-04-19T02:04:05.761Z,8.67
2023-04-19T02:06:37.978Z,8.63
2023-04-19T02:09:10.061Z,8.65
2023-04-19T02:11:42.224Z,8.62
2023-04-19T02:14:14.514Z,8.62
2023-04-19T02:16:46.857Z,8.58
2023-04-19T02:19:19.005Z,8.54
2023-04-19T02:21:51.971Z,8.52
2023-04-19T02:24:25.162Z,8.53
2023-04-19T02:26:57.217Z,8.47
2023-04-19T02:29:29.292Z,8.43
2023-04-19T02:32:01.585Z,8.39
2023-04-19T02:34:34.760Z,8.35
2023-04-19T02:37:07.408Z,8.29
2023-04-19T02:39:39.736Z,8.21
2023-04-19T02:42:12.105Z,8.16
2023-04-19T02:44:44.249Z,8.10
2023-04-19T02:47:16.330Z,8.05
2023-04-19T02:49:48.396Z,7.97
2023-04-19T02:52:20.723Z,7.83
2023-04-19T02:54:52.867Z,7.75
2023-04-19T02:57:24.991Z,7.63
2023-04-19T02:59:57.070Z,7.51
2023-04-19T03:02:29.175Z,7.45
2023-04-19T03:05:01.484Z,7.44
2023-04-19T03:07:33.602Z,7.40
2023-04-19T03:13:58.716Z,7.38
2023-04-19T03:16:30.774Z,7.37
2023-04-19T03:19:02.886Z,7.27
2023-04-19T03:21:35.034Z,7.24
2023-04-19T03:24:07.405Z,7.24
2023-04-19T03:26:39.473Z,7.28
2023-04-19T03:29:11.662Z,7.24
2023-04-19T03:31:43.878Z,7.20
2023-04-19T03:34:16.264Z,7.16
2023-04-19T03:36:48.496Z,7.15
2023-04-19T03:39:20.612Z,7.12
2023-04-19T03:41:52.802Z,7.07
2023-04-19T03:44:24.838Z,7.08
2023-04-19T03:46:56.933Z,7.07
2023-04-19T03:49:29.028Z,7.04
2023-04-19T03:52:01.197Z,6.98
2023-04-19T03:54:33.201Z,6.96
2023-04-19T03:57:06.070Z,6.96
2023-04-19T03:59:38.159Z,6.93
2023-04-19T04:02:10.402Z,6.92
2023-04-19T04:04:42.727Z,6.91
2023-04-19T04:07:15.021Z,6.86
2023-04-19T04:09:48.548Z,6.87
2023-04-19T04:12:20.660Z,6.84
2023-04-19T04:14:52.807Z,6.81
2023-04-19T04:17:25.088Z,6.80
2023-04-19T04:19:57.196Z,6.77
2023-04-19T04:22:29.300Z,6.76
2023-04-19T04:25:02.448Z,6.77
2023-04-19T04:27:34.577Z,6.76
2023-04-19T04:30:42.052Z,6.74
2023-04-19T04:33:14.233Z,6.67
2023-04-19T04:35:46.562Z,6.67
2023-04-19T04:38:24.618Z,6.66
2023-04-19T04:40:57.705Z,6.65
2023-04-19T04:43:30.602Z,6.59
2023-04-19T04:46:02.706Z,6.64
2023-04-19T04:48:34.882Z,6.62
2023-04-19T04:51:07.033Z,6.66
2023-04-19T04:53:39.196Z,6.66
2023-04-19T04:56:11.285Z,6.61
2023-04-19T04:58:43.340Z,6.56
2023-04-19T05:01:17.551Z,6.54
2023-04-19T05:04:05.197Z,6.57
2023-04-19T05:06:37.271Z,6.55
2023-04-19T05:09:10.327Z,6.51
2023-04-19T05:11:42.537Z,6.43
2023-04-19T05:14:14.960Z,6.40
2023-04-19T05:16:47.438Z,6.35
2023-04-19T05:19:19.487Z,6.39
2023-04-19T05:21:51.578Z,6.40
2023-04-19T05:24:23.726Z,6.40
2023-04-19T05:26:56.522Z,6.37
2023-04-19T05:29:28.604Z,6.35
2023-04-19T05:32:00.780Z,6.25
2023-04-19T05:34:33.452Z,6.31
2023-04-19T05:37:05.941Z,6.43
2023-04-19T05:39:42.345Z,6.47
2023-04-19T05:42:16.435Z,6.32
2023-04-19T05:44:48.511Z,6.26
2023-04-19T05:47:21.565Z,6.31
2023-04-19T05:49:53.695Z,6.38
2023-04-19T05:52:25.845Z,6.44
2023-04-19T05:54:58.864Z,6.46
2023-04-19T05:57:31.054Z,6.46
2023-04-19T06:00:05.173Z,6.52
2023-04-19T06:02:37.616Z,6.53
2023-04-19T06:05:10.997Z,6.58
2023-04-19T06:07:50.637Z,6.64
2023-04-19T06:10:36.741Z,6.75
2023-04-19T06:13:19.492Z,6.79
2023-04-19T06:15:51.777Z,6.84
2023-04-19T06:18:23.839Z,6.89
2023-04-19T06:20:56.067Z,7.05
2023-04-19T06:23:28.143Z,7.11
2023-04-19T06:26:00.223Z,7.16
2023-04-19T06:28:44.343Z,7.24
2023-04-19T06:31:16.488Z,7.35
2023-04-19T06:33:48.606Z,7.44
2023-04-19T06:36:21.145Z,7.56
2023-04-19T06:39:14.122Z,7.72
2023-04-19T06:41:47.063Z,7.88
2023-04-19T06:44:19.533Z,7.95
2023-04-19T06:47:06.373Z,8.06
2023-04-19T06:49:55.539Z,8.14
2023-04-19T06:52:32.502Z,8.15
2023-04-19T06:55:09.143Z,8.31
2023-04-19T06:57:48.105Z,8.46
2023-04-19T07:00:29.408Z,8.64
2023-04-19T07:06:16.976Z,8.88
2023-04-19T07:09:45.088Z,9.00
2023-04-19T07:12:17.292Z,9.16
2023-04-19T07:14:49.765Z,9.36
2023-04-19T07:17:22.990Z,9.41
2023-04-19T07:19:55.359Z,9.57
2023-04-19T07:22:27.722Z,9.72
2023-04-19T07:25:01.400Z,9.81
2023-04-19T07:27:39.970Z,10.01
2023-04-19T07:30:12.540Z,10.20
2023-04-19T07:32:45.170Z,10.34
2023-04-19T07:35:18.332Z,10.47
2023-04-19T07:37:50.963Z,10.72
2023-04-19T07:40:23.312Z,11.03
2023-04-19T07:43:05.752Z,11.28
2023-04-19T07:45:38.059Z,11.77
2023-04-19T07:48:16.266Z,12.42
2023-04-19T07:50:49.461Z,12.92
2023-04-19T07:53:21.793Z,13.61
2023-04-19T07:55:54.143Z,14.26
2023-04-19T07:58:30.249Z,14.99
2023-04-19T08:01:02.664Z,15.95
2023-04-19T08:03:38.278Z,16.89
2023-04-19T08:06:10.622Z,17.81
2023-04-19T08:08:42.830Z,18.18
2023-04-19T08:11:15.355Z,18.40
2023-04-19T08:14:02.636Z,19.11
2023-04-19T08:17:08.988Z,20.41
2023-04-19T08:19:31.272Z,21.20
2023-04-19T08:22:09.098Z,21.75
2023-04-19T08:24:44.204Z,21.99
2023-04-19T08:27:16.853Z,22.44
2023-04-19T08:29:49.365Z,23.16
2023-04-19T08:32:24.702Z,22.97
2023-04-19T08:34:57.742Z,22.98
2023-04-19T08:37:30.010Z,23.43
2023-04-19T08:40:02.707Z,23.13
2023-04-19T08:42:36.729Z,23.11
2023-04-19T08:45:26.793Z,22.12
2023-04-19T08:48:02.671Z,21.58
2023-04-19T08:50:48.419Z,22.08
2023-04-19T08:53:37.255Z,22.25
2023-04-19T08:56:21.032Z,23.08
2023-04-19T08:59:11.477Z,24.04
2023-04-19T09:01:51.665Z,24.98
2023-04-19T09:05:06.377Z,25.02
2023-04-19T09:13:03.756Z,24.02
2023-04-19T09:16:00.177Z,25.01
2023-04-19T09:19:15.337Z,24.42
2023-04-19T09:22:15.699Z,24.37
2023-04-19T09:30:37.920Z,24.67
2023-04-19T09:33:42.088Z,24.42
2023-04-19T09:39:48.232Z,24.03
2023-04-19T09:42:42.364Z,23.80
2023-04-19T09:45:58.181Z,23.41
2023-04-19T09:48:38.507Z,23.27
2023-04-19T09:59:44.745Z,25.79
2023-04-19T10:02:48.701Z,26.71
2023-04-19T10:05:53.508Z,26.60
2023-04-19T10:08:30.127Z,26.77
2023-04-19T10:11:07.699Z,26.96
2023-04-19T10:13:44.404Z,26.49
2023-04-19T10:19:29.635Z,24.43
2023-04-19T10:22:17.630Z,23.98
2023-04-19T10:25:19.789Z,23.80
2023-04-19T10:27:52.087Z,23.90
2023-04-19T10:30:27.532Z,24.08
2023-04-19T10:33:03.142Z,24.22
2023-04-19T10:36:21.051Z,24.46
2023-04-19T10:38:56.534Z,24.91
2023-04-19T10:41:59.937Z,25.77
2023-04-19T10:44:42.477Z,26.92
2023-04-19T10:47:47.816Z,27.88
2023-04-19T10:50:46.509Z,28.22
2023-04-19T10:54:03.450Z,28.62
2023-04-19T10:56:35.863Z,28.42
2023-04-19T10:59:08.605Z,29.37
2023-04-19T11:05:36.515Z,29.80
2023-04-19T11:08:24.920Z,30.23
2023-04-19T11:11:11.156Z,30.04
2023-04-19T11:15:05.275Z,29.83
2023-04-19T11:18:11.938Z,31.03
2023-04-19T11:20:57.369Z,30.62
2023-04-19T11:24:24.477Z,29.56
2023-04-19T11:27:05.436Z,29.56
2023-04-19T11:30:14.907Z,29.19
2023-04-19T11:32:50.091Z,28.27
2023-04-19T11:35:28.221Z,29.18
2023-04-19T11:38:01.898Z,29.39
2023-04-19T11:40:37.784Z,28.69
2023-04-19T11:43:10.005Z,27.46
2023-04-19T11:45:42.593Z,27.38
2023-04-19T11:48:30.004Z,28.50
2023-04-19T11:51:03.067Z,27.91
2023-04-19T11:53:35.121Z,28.07
2023-04-19T11:56:10.113Z,28.37
2023-04-19T11:58:46.128Z,29.81
2023-04-19T12:01:22.707Z,30.47
2023-04-19T12:03:57.800Z,29.69
2023-04-19T12:06:32.224Z,30.10
2023-04-19T12:09:11.658Z,30.12
2023-04-19T12:11:50.451Z,30.23
2023-04-19T12:14:23.553Z,29.80
2023-04-19T12:17:20.098Z,29.01
2023-04-19T12:19:52.656Z,29.25
2023-04-19T12:22:28.251Z,29.67
2023-04-19T12:25:00.498Z,29.54
2023-04-19T12:27:41.352Z,29.90
2023-04-19T12:30:21.186Z,29.89
2023-04-19T12:32:56.342Z,30.52
2023-04-19T12:35:33.752Z,30.69
2023-04-19T12:38:06.362Z,31.01
2023-04-19T12:40:38.559Z,30.65
2023-04-19T12:43:10.826Z,30.09
2023-04-19T12:46:35.988Z,29.52
2023-04-19T12:49:08.479Z,29.16
2023-04-19T12:51:45.621Z,29.50
2023-04-19T12:55:09.815Z,27.01
2023-04-19T12:57:51.368Z,27.30
2023-04-19T13:00:25.527Z,27.16
2023-04-19T13:03:04.177Z,26.79
2023-04-19T13:05:36.550Z,27.03
2023-04-19T13:08:11.417Z,28.07
2023-04-19T13:10:45.660Z,27.39
2023-04-19T13:13:22.468Z,25.27
2023-04-19T13:15:54.673Z,24.89
2023-04-19T13:18:27.272Z,24.81
2023-04-19T13:20:59.630Z,25.45
2023-04-19T13:23:39.071Z,25.80
2023-04-19T13:26:19.429Z,25.55
2023-04-19T13:28:54.924Z,25.64
2023-04-19T13:31:27.928Z,25.56
2023-04-19T13:34:00.767Z,24.14
2023-04-19T13:36:32.984Z,23.76
2023-04-19T13:39:07.623Z,23.36
2023-04-19T13:41:40.767Z,23.69
2023-04-19T13:44:12.933Z,23.32
2023-04-19T13:47:05.042Z,23.59
2023-04-19T13:49:37.298Z,24.08
2023-04-19T13:52:11.230Z,24.26
2023-04-19T13:54:48.545Z,24.63
2023-04-19T13:57:21.196Z,24.69
2023-04-19T14:00:08.937Z,24.52
2023-04-19T14:02:42.171Z,24.58
2023-04-19T14:05:14.320Z,24.39
2023-04-19T14:07:46.869Z,24.03
2023-04-19T14:10:19.666Z,23.97
2023-04-19T14:12:58.065Z,24.06
2023-04-19T14:15:30.244Z,23.47
2023-04-19T14:18:03.457Z,22.37
2023-04-19T14:20:35.631Z,22.19
2023-04-19T14:23:10.153Z,22.33
2023-04-19T14:25:42.434Z,22.13
2023-04-19T14:28:19.996Z,21.82
2023-04-19T14:30:52.540Z,21.34
2023-04-19T14:33:24.796Z,21.06
2023-04-19T14:36:00.266Z,20.89
2023-04-19T14:38:35.588Z,21.18
2023-04-19T14:41:08.051Z,20.64
2023-04-19T14:43:40.150Z,20.77
2023-04-19T14:46:12.289Z,21.01
2023-04-19T14:49:20.607Z,19.92
2023-04-19T14:51:57.616Z,19.64
2023-04-19T14:54:35.716Z,19.87
2023-04-19T14:57:13.980Z,19.59
2023-04-19T14:59:49.371Z,19.20
2023-04-19T15:02:21.682Z,19.21
2023-04-19T15:04:54.761Z,19.46
2023-04-19T15:07:32.492Z,19.41
2023-04-19T15:10:10.089Z,19.36
2023-04-19T15:12:42.302Z,18.97
2023-04-19T15:15:21.046Z,18.76
2023-04-19T15:17:59.938Z,18.64
2023-04-19T15:20:39.658Z,18.49
2023-04-19T15:23:11.963Z,18.53
2023-04-19T15:25:52.648Z,18.38
2023-04-19T15:28:25.972Z,18.29
2023-04-19T15:31:11.251Z,18.22
2023-04-19T15:33:50.622Z,17.97
2023-04-19T15:36:22.918Z,17.76
2023-04-19T15:39:35.850Z,17.58
2023-04-19T15:42:08.028Z,17.37
2023-04-19T15:44:42.808Z,17.17
2023-04-19T15:47:16.456Z,17.10
2023-04-19T15:49:48.740Z,17.04
2023-04-19T15:52:37.005Z,16.80
2023-04-19T15:55:12.148Z,16.57
2023-04-19T15:57:44.300Z,16.32
2023-04-19T16:00:17.823Z,16.30
2023-04-19T16:02:50.283Z,16.16
2023-04-19T16:05:23.256Z,15.99
2023-04-19T16:08:08.106Z,15.82
2023-04-19T16:10:40.998Z,15.84
2023-04-19T16:14:07.846Z,15.56
2023-04-19T16:16:40.675Z,15.64
2023-04-19T16:19:12.852Z,15.57
2023-04-19T16:21:44.961Z,15.55
2023-04-19T16:24:17.138Z,15.54
2023-04-19T16:26:49.175Z,15.54
2023-04-19T16:29:21.327Z,15.50
2023-04-19T16:31:59.207Z,15.47
2023-04-19T16:34:31.524Z,15.46
2023-04-19T16:37:06.647Z,15.46
2023-04-19T16:39:38.803Z,15.33
2023-04-19T16:42:11.028Z,15.15
2023-04-19T16:44:43.588Z,15.16
2023-04-19T16:47:15.983Z,15.20
2023-04-19T16:49:49.579Z,15.20
2023-04-19T16:52:21.746Z,15.08
2023-04-19T16:54:54.414Z,15.04
2023-04-19T16:57:26.760Z,15.01
2023-04-19T17:00:13.622Z,14.83
2023-04-19T17:02:46.024Z,14.82
2023-04-19T17:05:18.379Z,14.87
2023-04-19T17:07:52.360Z,14.79
2023-04-19T17:10:26.970Z,14.52
2023-04-19T17:12:59.344Z,14.19
2023-04-19T17:15:31.813Z,14.00
2023-04-19T17:18:04.267Z,14.02
2023-04-19T17:20:38.852Z,14.24
2023-04-19T17:23:10.939Z,14.16
2023-04-19T17:25:43.237Z,14.02
2023-04-19T17:28:15.531Z,14.05
2023-04-19T17:30:47.687Z,14.09
2023-04-19T17:33:19.839Z,14.09
2023-04-19T17:35:52.088Z,13.96
2023-04-19T17:38:24.235Z,14.07
2023-04-19T17:40:57.376Z,14.06
2023-04-19T17:43:29.535Z,14.09
2023-04-19T17:46:01.748Z,14.03
2023-04-19T17:48:34.384Z,13.94
2023-04-19T17:51:07.448Z,13.90
2023-04-19T17:53:39.633Z,13.93
2023-04-19T17:56:11.812Z,13.94
2023-04-19T17:58:43.947Z,13.80
2023-04-19T18:01:16.464Z,13.73
2023-04-19T18:03:48.910Z,13.78
2023-04-19T18:06:21.423Z,13.74
2023-04-19T18:08:53.518Z,13.77
2023-04-19T18:11:28.181Z,13.78
2023-04-19T18:14:00.783Z,13.67
2023-04-19T18:16:33.502Z,13.69
2023-04-19T18:19:05.786Z,13.67
2023-04-19T18:21:37.905Z,13.63
2023-04-19T18:24:10.383Z,13.64
2023-04-19T18:26:44.067Z,13.58
2023-04-19T18:29:16.372Z,13.55
2023-04-19T18:31:48.954Z,13.51
2023-04-19T18:34:21.331Z,13.48
2023-04-19T18:37:00.326Z,13.43
2023-04-19T18:39:38.549Z,13.39
2023-04-19T18:42:11.834Z,13.45
2023-04-19T18:44:53.799Z,13.38
2023-04-19T18:47:27.658Z,13.32
2023-04-19T18:50:05.006Z,13.21
2023-04-19T18:52:39.704Z,13.00
2023-04-19T18:55:21.092Z,13.05
2023-04-19T18:57:53.359Z,12.89
2023-04-19T19:00:26.747Z,12.93
2023-04-19T19:03:00.570Z,12.91
2023-04-19T19:06:04.362Z,12.92
2023-04-19T19:08:36.833Z,12.85
2023-04-19T19:11:33.078Z,12.84
2023-04-19T19:14:02.894Z,12.80
2023-04-19T19:19:10.292Z,12.76
2023-04-19T19:21:42.496Z,12.74
2023-04-19T19:24:15.163Z,12.79
2023-04-19T19:26:48.222Z,12.66
2023-04-19T19:29:22.672Z,12.70
2023-04-19T19:31:55.313Z,12.70
2023-04-19T19:34:30.340Z,12.65
2023-04-19T19:37:06.548Z,12.62
2023-04-19T19:39:38.872Z,12.61
2023-04-19T19:42:15.178Z,12.69
2023-04-19T19:44:49.681Z,12.63
2023-04-19T19:47:27.853Z,12.65
2023-04-19T19:52:38.676Z,12.64
2023-04-19T19:55:14.252Z,12.60
2023-04-19T19:58:21.035Z,12.47
2023-04-19T20:00:46.952Z,12.38
2023-04-19T20:03:36.089Z,12.27
2023-04-19T20:07:02.931Z,12.17
2023-04-19T20:10:00.550Z,12.21
2023-04-19T20:12:34.404Z,12.22
2023-04-19T20:19:59.423Z,12.04
2023-04-19T20:23:07.218Z,12.02
2023-04-19T20:26:22.204Z,11.97
2023-04-19T20:28:54.505Z,11.98
2023-04-19T20:31:29.286Z,11.93
2023-04-19T20:34:01.857Z,11.93
2023-04-19T20:36:35.291Z,11.86
2023-04-19T20:39:13.477Z,11.80
2023-04-19T20:41:49.194Z,11.65
2023-04-19T20:44:23.061Z,11.69
2023-04-19T20:46:56.338Z,11.70
2023-04-19T20:49:28.517Z,11.74
2023-04-19T20:52:00.752Z,11.71
2023-04-19T20:54:40.787Z,11.72
2023-04-19T20:57:16.683Z,11.69
2023-04-19T20:59:49.708Z,11.66
2023-04-19T21:02:22.049Z,11.61
2023-04-19T21:04:54.248Z,11.60
2023-04-19T21:07:26.863Z,11.57
2023-04-19T21:09:59.029Z,11.55
2023-04-19T21:12:31.264Z,11.54
2023-04-19T21:15:05.208Z,11.43
2023-04-19T21:17:37.936Z,11.39
2023-04-19T21:20:14.930Z,11.38
2023-04-19T21:22:47.660Z,11.45
2023-04-19T21:25:20.083Z,11.47
2023-04-19T21:27:52.350Z,11.43
2023-04-19T21:30:25.950Z,11.40
2023-04-19T21:32:58.175Z,11.31
2023-04-19T21:35:30.557Z,11.24
2023-04-19T21:38:02.939Z,11.21
2023-04-19T21:40:35.350Z,11.06
2023-04-19T21:43:10.275Z,11.07
2023-04-19T21:45:42.466Z,10.93
2023-04-19T21:48:15.241Z,10.92
2023-04-19T21:50:47.516Z,11.02
2023-04-19T21:53:19.684Z,10.97
2023-04-19T21:55:52.075Z,10.99
2023-04-19T21:58:24.225Z,11.02
2023-04-19T22:00:56.572Z,11.03
2023-04-19T22:03:29.070Z,11.08
2023-04-19T22:06:02.240Z,11.11
2023-04-19T22:08:34.988Z,11.16
2023-04-19T22:11:07.459Z,11.29
2023-04-19T22:13:42.298Z,11.35
2023-04-19T22:17:07.641Z,11.33
2023-04-19T22:19:40.126Z,11.34
2023-04-19T22:22:26.842Z,11.37
2023-04-19T22:24:59.710Z,11.24
2023-04-19T22:27:33.696Z,11.28
2023-04-19T22:30:07.697Z,11.27
2023-04-19T22:32:41.206Z,11.25
2023-04-19T22:35:13.545Z,11.21
2023-04-19T22:37:45.882Z,11.14
2023-04-19T22:40:18.017Z,11.04
2023-04-19T22:42:50.141Z,11.02
2023-04-19T22:45:22.243Z,11.08
2023-04-19T22:47:54.524Z,11.14
2023-04-19T22:50:26.713Z,11.06
2023-04-19T22:52:58.955Z,10.95
2023-04-19T22:55:31.225Z,10.97
2023-04-19T22:58:05.028Z,10.91
2023-04-19T23:00:37.976Z,10.88
2023-04-19T23:03:11.806Z,10.81
2023-04-19T23:05:44.716Z,10.82
2023-04-19T23:08:17.087Z,10.90
2023-04-19T23:10:51.018Z,10.82
2023-04-19T23:13:23.382Z,10.86
2023-04-19T23:15:55.532Z,10.95
2023-04-19T23:18:28.169Z,11.03
2023-04-19T23:21:00.331Z,11.08
2023-04-19T23:23:33.891Z,11.06
2023-04-19T23:26:06.348Z,11.11
2023-04-19T23:28:38.678Z,11.00
2023-04-19T23:31:13.976Z,11.06
2023-04-19T23:33:46.203Z,11.05
2023-04-19T23:36:18.402Z,11.10
2023-04-19T23:39:38.388Z,11.19
2023-04-19T23:42:10.596Z,11.20
2023-04-19T23:45:06.751Z,11.13
2023-04-19T23:47:39.232Z,11.08
2023-04-19T23:50:11.804Z,10.93
2023-04-19T23:52:44.104Z,10.97
2023-04-19T23:55:19.546Z,10.92
2023-04-19T23:57:51.716Z,10.99
